createdAt,value
2023-08-17T00:00:49.688Z,100728.63
2023-08-17T00:03:17.407Z,100730.09
2023-08-17T00:05:45.281Z,100724.06
2023-08-17T00:08:12.925Z,100739.44
2023-08-17T00:10:41.967Z,100734.28
2023-08-17T00:13:09.611Z,100733.03
2023-08-17T00:15:37.323Z,100722.25
2023-08-17T00:18:05.603Z,100729.72
2023-08-17T00:20:33.330Z,100728.69
2023-08-17T00:23:00.968Z,100724.72
2023-08-17T00:25:28.634Z,100730.97
2023-08-17T00:27:57.680Z,100722.25
2023-08-17T00:30:25.738Z,100715.59
2023-08-17T00:32:53.584Z,100722.09
2023-08-17T00:35:21.353Z,100722.88
2023-08-17T00:37:49.057Z,100726.00
2023-08-17T00:40:16.832Z,100723.50
2023-08-17T00:42:44.509Z,100718.16
2023-08-17T00:45:13.748Z,100716.44
2023-08-17T00:47:42.005Z,100704.81
2023-08-17T00:50:10.310Z,100705.44
2023-08-17T00:52:38.061Z,100700.25
2023-08-17T00:55:07.535Z,100703.56
2023-08-17T00:57:35.787Z,100701.75
2023-08-17T01:00:06.291Z,100700.72
2023-08-17T01:02:36.762Z,100701.53
2023-08-17T01:05:07.043Z,100698.22
2023-08-17T01:07:34.771Z,100707.56
2023-08-17T01:10:04.256Z,100709.84
2023-08-17T01:12:33.376Z,100704.03
2023-08-17T01:15:07.422Z,100707.63
2023-08-17T01:17:42.360Z,100700.34
2023-08-17T01:20:13.309Z,100710.31
2023-08-17T01:22:43.467Z,100704.91
2023-08-17T01:25:12.516Z,100708.69
2023-08-17T01:27:42.682Z,100708.69
2023-08-17T01:30:12.899Z,100708.69
2023-08-17T01:32:46.532Z,100703.91
2023-08-17T01:35:22.657Z,100699.56
2023-08-17T01:37:54.034Z,100694.16
2023-08-17T01:40:24.993Z,100694.16
2023-08-17T01:42:53.035Z,100694.81
2023-08-17T01:45:20.857Z,100694.16
2023-08-17T01:47:48.540Z,100690.22
2023-08-17T01:50:16.203Z,100684.88
2023-08-17T01:52:43.973Z,100682.38
2023-08-17T01:55:11.665Z,100687.78
2023-08-17T01:57:40.684Z,100682.78
2023-08-17T02:00:11.686Z,100683.84
2023-08-17T02:02:39.446Z,100689.06
2023-08-17T02:05:07.760Z,100675.56
2023-08-17T02:07:35.452Z,100682.22
2023-08-17T02:10:03.218Z,100680.13
2023-08-17T02:12:30.998Z,100675.56
2023-08-17T02:15:00.004Z,100677.63
2023-08-17T02:17:28.440Z,100671.63
2023-08-17T02:19:56.262Z,100670.59
2023-08-17T02:22:24.120Z,100668.34
2023-08-17T02:24:53.464Z,100669.38
2023-08-17T02:27:21.105Z,100672.69
2023-08-17T02:29:48.828Z,100659.22
2023-08-17T02:32:17.798Z,100659.22
2023-08-17T02:34:45.519Z,100657.75
2023-08-17T02:37:13.165Z,100664.41
2023-08-17T02:39:41.874Z,100658.59
2023-08-17T02:42:09.707Z,100662.56
2023-08-17T02:44:37.427Z,100659.66
2023-08-17T02:47:05.314Z,100667.16
2023-08-17T02:49:34.525Z,100658.25
2023-08-17T02:52:02.198Z,100656.38
2023-08-17T02:54:29.896Z,100652.59
2023-08-17T02:56:57.609Z,100667.16
2023-08-17T02:59:25.349Z,100663.41
2023-08-17T03:01:53.033Z,100660.94
2023-08-17T03:04:20.965Z,100664.47
2023-08-17T03:06:50.048Z,100666.09
2023-08-17T03:09:17.711Z,100669.03
2023-08-17T03:11:45.412Z,100669.44
2023-08-17T03:14:13.529Z,100663.22
2023-08-17T03:16:41.204Z,100653.88
2023-08-17T03:19:11.961Z,100668.66
2023-08-17T03:21:40.008Z,100659.06
2023-08-17T03:24:09.394Z,100659.91
2023-08-17T03:26:37.104Z,100654.97
2023-08-17T03:29:04.785Z,100658.66
2023-08-17T03:31:32.503Z,100667.38
2023-08-17T03:34:01.397Z,100667.38
2023-08-17T03:36:29.067Z,100669.47
2023-08-17T03:38:56.761Z,100663.03
2023-08-17T03:41:26.629Z,100662.38
2023-08-17T03:43:54.270Z,100663.22
2023-08-17T03:46:22.004Z,100665.75
2023-08-17T03:48:49.802Z,100667.81
2023-08-17T03:51:17.502Z,100669.88
2023-08-17T03:53:45.156Z,100667.38
2023-08-17T03:56:12.793Z,100666.16
2023-08-17T03:58:41.801Z,100671.13
2023-08-17T04:01:09.420Z,100659.13
2023-08-17T04:03:37.175Z,100666.38
2023-08-17T04:06:07.299Z,100669.91
2023-08-17T04:08:35.090Z,100668.66
2023-08-17T04:11:02.717Z,100672.19
2023-08-17T04:13:30.374Z,100668.66
2023-08-17T04:15:59.476Z,100679.84
2023-08-17T04:18:27.150Z,100676.56
2023-08-17T04:20:55.544Z,100680.88
2023-08-17T04:23:23.385Z,100679.84
2023-08-17T04:25:51.038Z,100680.88
2023-08-17T04:28:18.661Z,100696.03
2023-08-17T04:30:46.349Z,100681.97
2023-08-17T04:33:15.352Z,100693.97
2023-08-17T04:35:43.071Z,100685.25
2023-08-17T04:38:10.720Z,100690.63
2023-08-17T04:40:38.640Z,100696.03
2023-08-17T04:43:06.651Z,100693.13
2023-08-17T04:45:34.427Z,100689.41
2023-08-17T04:48:02.263Z,100692.31
2023-08-17T04:50:31.483Z,100692.72
2023-08-17T04:52:59.173Z,100694.19
2023-08-17T04:55:26.855Z,100694.19
2023-08-17T04:57:54.579Z,100695.59
2023-08-17T05:00:28.600Z,100695.41
2023-08-17T05:02:56.456Z,100699.13
2023-08-17T05:05:24.970Z,100705.78
2023-08-17T05:07:54.663Z,100710.13
2023-08-17T05:10:22.557Z,100711.16
2023-08-17T05:12:50.228Z,100708.47
2023-08-17T05:15:18.045Z,100710.13
2023-08-17T05:17:45.683Z,100716.34
2023-08-17T05:20:14.864Z,100708.84
2023-08-17T05:22:42.632Z,100719.22
2023-08-17T05:25:11.775Z,100715.50
2023-08-17T05:27:38.466Z,100717.19
2023-08-17T05:30:07.766Z,100727.97
2023-08-17T05:32:35.446Z,100732.53
2023-08-17T05:35:03.095Z,100727.31
2023-08-17T05:37:30.729Z,100728.81
2023-08-17T05:39:58.396Z,100732.34
2023-08-17T05:42:27.456Z,100727.31
2023-08-17T05:44:55.059Z,100732.09
2023-08-17T05:47:22.756Z,100730.03
2023-08-17T05:49:50.490Z,100729.41
2023-08-17T05:52:18.152Z,100725.44
2023-08-17T05:54:45.765Z,100724.41
2023-08-17T05:57:13.528Z,100725.84
2023-08-17T05:59:42.530Z,100735.41
2023-08-17T06:02:10.222Z,100733.72
2023-08-17T06:04:38.001Z,100733.72
2023-08-17T06:07:06.002Z,100732.06
2023-08-17T06:09:33.692Z,100732.69
2023-08-17T06:12:01.403Z,100724.41
2023-08-17T06:14:29.058Z,100722.50
2023-08-17T06:16:58.066Z,100729.34
2023-08-17T06:19:25.736Z,100728.09
2023-08-17T06:21:53.464Z,100731.63
2023-08-17T06:24:21.156Z,100737.00
2023-08-17T06:26:48.852Z,100733.47
2023-08-17T06:29:16.850Z,100740.72
2023-08-17T06:31:44.506Z,100734.09
2023-08-17T06:34:13.496Z,100740.13
2023-08-17T06:36:41.424Z,100748.00
2023-08-17T06:39:09.863Z,100752.78
2023-08-17T06:41:37.515Z,100754.63
2023-08-17T06:44:07.074Z,100749.44
2023-08-17T06:46:34.733Z,100747.38
2023-08-17T06:49:02.372Z,100737.41
2023-08-17T06:51:31.495Z,100741.97
2023-08-17T06:53:59.153Z,100739.06
2023-08-17T06:56:26.797Z,100737.22
2023-08-17T06:58:54.840Z,100745.06
2023-08-17T07:01:22.475Z,100746.50
2023-08-17T07:03:50.253Z,100749.84
2023-08-17T07:06:17.946Z,100749.84
2023-08-17T07:08:47.130Z,100746.09
2023-08-17T07:11:14.783Z,100743.19
2023-08-17T07:13:42.423Z,100736.34
2023-08-17T07:16:10.547Z,100741.13
2023-08-17T07:18:38.299Z,100735.72
2023-08-17T07:21:05.973Z,100738.22
2023-08-17T07:23:33.690Z,100738.00
2023-08-17T07:26:02.692Z,100743.56
2023-08-17T07:28:30.498Z,100745.44
2023-08-17T07:30:58.156Z,100744.81
2023-08-17T07:33:25.846Z,100746.03
2023-08-17T07:35:54.251Z,100747.69
2023-08-17T07:38:21.949Z,100751.84
2023-08-17T07:40:49.613Z,100750.59
2023-08-17T07:43:18.667Z,100760.56
2023-08-17T07:45:46.485Z,100761.81
2023-08-17T07:48:14.206Z,100768.44
2023-08-17T07:50:41.935Z,100773.03
2023-08-17T07:53:09.677Z,100766.56
2023-08-17T07:55:37.385Z,100760.16
2023-08-17T07:58:06.801Z,100755.38
2023-08-17T08:00:35.820Z,100754.91
2023-08-17T08:03:03.640Z,100764.69
2023-08-17T08:05:31.385Z,100764.88
2023-08-17T08:07:59.101Z,100757.59
2023-08-17T08:10:26.845Z,100763.38
2023-08-17T08:12:54.546Z,100762.56
2023-08-17T08:15:22.362Z,100762.34
2023-08-17T08:17:51.572Z,100761.94
2023-08-17T08:20:19.471Z,100760.06
2023-08-17T08:22:47.091Z,100761.94
2023-08-17T08:25:14.697Z,100761.75
2023-08-17T08:27:42.576Z,100757.19
2023-08-17T08:30:10.830Z,100759.44
2023-08-17T08:32:38.495Z,100760.69
2023-08-17T08:35:08.230Z,100751.78
2023-08-17T08:37:35.883Z,100751.31
2023-08-17T08:40:03.617Z,100751.13
2023-08-17T08:42:31.294Z,100746.53
2023-08-17T08:44:58.989Z,100754.22
2023-08-17T08:47:28.934Z,100743.81
2023-08-17T08:50:03.470Z,100749.59
2023-08-17T08:52:36.687Z,100751.28
2023-08-17T08:55:14.224Z,100743.53
2023-08-17T08:57:43.338Z,100749.13
2023-08-17T09:00:13.488Z,100741.59
2023-08-17T09:02:41.795Z,100739.06
2023-08-17T09:05:12.083Z,100737.81
2023-08-17T09:07:41.823Z,100747.72
2023-08-17T09:10:11.824Z,100741.47
2023-08-17T09:12:41.835Z,100744.72
2023-08-17T09:15:10.515Z,100738.78
2023-08-17T09:17:38.298Z,100736.63
2023-08-17T09:20:08.493Z,100738.00
2023-08-17T09:22:42.693Z,100736.66
2023-08-17T09:25:11.657Z,100742.28
2023-08-17T09:27:42.158Z,100736.72
2023-08-17T09:30:12.035Z,100740.47
2023-08-17T09:32:39.914Z,100731.56
2023-08-17T09:35:09.004Z,100737.53
2023-08-17T09:37:36.942Z,100731.91
2023-08-17T09:40:06.686Z,100733.97
2023-08-17T09:42:37.336Z,100734.94
2023-08-17T09:45:05.822Z,100737.56
2023-08-17T09:47:33.646Z,100741.56
2023-08-17T09:50:01.361Z,100747.28
2023-08-17T09:52:29.264Z,100749.97
2023-08-17T09:54:58.313Z,100745.88
2023-08-17T09:57:27.878Z,100747.75
2023-08-17T09:59:56.555Z,100746.22
2023-08-17T10:02:26.134Z,100736.44
2023-08-17T10:04:59.247Z,100729.38
2023-08-17T10:07:34.362Z,100721.44
2023-08-17T10:10:05.440Z,100720.47
2023-08-17T10:12:39.645Z,100717.81
2023-08-17T10:15:12.708Z,100720.94
2023-08-17T10:17:56.727Z,100733.25
2023-08-17T10:20:25.493Z,100741.41
2023-08-17T10:23:01.944Z,100724.44
2023-08-17T10:25:30.791Z,100722.47
2023-08-17T10:28:01.431Z,100711.19
2023-08-17T10:30:29.383Z,100714.50
2023-08-17T10:32:57.918Z,100714.25
2023-08-17T10:35:26.082Z,100720.56
2023-08-17T10:37:53.911Z,100714.91
2023-08-17T10:40:27.996Z,100718.00
2023-08-17T10:42:57.034Z,100710.75
2023-08-17T10:45:31.634Z,100709.06
2023-08-17T10:48:28.273Z,100703.00
2023-08-17T10:51:04.586Z,100707.06
2023-08-17T10:53:43.599Z,100712.41
2023-08-17T10:56:13.986Z,100719.59
2023-08-17T10:58:42.392Z,100701.34
2023-08-17T11:01:11.949Z,100695.66
2023-08-17T11:03:40.509Z,100708.91
2023-08-17T11:06:19.557Z,100697.09
2023-08-17T11:08:55.781Z,100701.06
2023-08-17T11:11:24.896Z,100702.50
2023-08-17T11:13:57.922Z,100700.00
2023-08-17T11:16:27.191Z,100696.09
2023-08-17T11:18:58.191Z,100690.72
2023-08-17T11:21:26.104Z,100675.81
2023-08-17T11:23:57.792Z,100677.63
2023-08-17T11:26:26.046Z,100683.66
2023-08-17T11:28:54.001Z,100691.28
2023-08-17T11:31:21.640Z,100682.66
2023-08-17T11:36:24.091Z,100682.00
2023-08-17T11:38:51.752Z,100679.59
2023-08-17T11:41:19.955Z,100678.56
2023-08-17T11:43:48.095Z,100680.81
2023-08-17T11:46:17.462Z,100694.84
2023-08-17T11:48:45.270Z,100698.63
2023-08-17T11:51:14.333Z,100705.00
2023-08-17T11:53:42.204Z,100709.28
2023-08-17T11:56:11.144Z,100709.91
2023-08-17T11:58:44.057Z,100707.00
2023-08-17T12:01:13.657Z,100704.53
2023-08-17T12:03:43.181Z,100701.03
2023-08-17T12:06:11.684Z,100702.78
2023-08-17T12:08:45.517Z,100711.09
2023-08-17T12:11:14.503Z,100705.34
2023-08-17T12:13:42.184Z,100710.56
2023-08-17T12:16:17.074Z,100722.56
2023-08-17T12:18:46.341Z,100721.47
2023-08-17T12:21:14.075Z,100718.31
2023-08-17T12:23:43.492Z,100710.03
2023-08-17T12:26:11.259Z,100708.97
2023-08-17T12:28:42.179Z,100711.75
2023-08-17T12:31:09.958Z,100713.97
2023-08-17T12:33:37.698Z,100698.13
2023-08-17T12:36:07.827Z,100697.25
2023-08-17T12:38:35.717Z,100693.44
2023-08-17T12:41:07.522Z,100682.09
2023-08-17T12:43:35.294Z,100671.53
2023-08-17T12:46:02.963Z,100659.13
2023-08-17T12:51:05.056Z,100653.59
2023-08-17T12:53:33.164Z,100646.75
2023-08-17T12:56:00.893Z,100656.72
2023-08-17T12:58:29.937Z,100652.50
2023-08-17T13:00:57.857Z,100653.69
2023-08-17T13:03:25.729Z,100647.19
2023-08-17T13:05:53.444Z,100650.44
2023-08-17T13:08:21.172Z,100645.22
2023-08-17T13:10:48.798Z,100645.94
2023-08-17T13:13:16.423Z,100644.75
2023-08-17T13:15:45.408Z,100629.78
2023-08-17T13:18:13.108Z,100624.03
2023-08-17T13:20:41.459Z,100622.59
2023-08-17T13:23:09.339Z,100607.38
2023-08-17T13:25:37.046Z,100603.84
2023-08-17T13:28:05.217Z,100609.28
2023-08-17T13:30:33.060Z,100612.41
2023-08-17T13:33:02.240Z,100606.38
2023-08-17T13:35:29.979Z,100617.09
2023-08-17T13:37:58.637Z,100614.22
2023-08-17T13:40:26.557Z,100611.59
2023-08-17T13:42:54.236Z,100611.13
2023-08-17T13:45:21.894Z,100601.63
2023-08-17T13:47:49.621Z,100603.22
2023-08-17T13:50:19.622Z,100587.47
2023-08-17T13:52:47.907Z,100583.38
2023-08-17T13:55:15.561Z,100585.84
2023-08-17T13:57:43.209Z,100580.16
2023-08-17T14:00:12.312Z,100576.66
2023-08-17T14:02:40.332Z,100562.88
2023-08-17T14:05:08.816Z,100557.75
2023-08-17T14:07:37.812Z,100556.19
2023-08-17T14:10:10.709Z,100553.81
2023-08-17T14:12:42.813Z,100550.28
2023-08-17T14:15:11.193Z,100533.69
2023-08-17T14:17:38.869Z,100529.41
2023-08-17T14:20:07.407Z,100530.50
2023-08-17T14:22:35.065Z,100523.59
2023-08-17T14:25:04.222Z,100525.66
2023-08-17T14:27:31.876Z,100523.44
2023-08-17T14:30:02.381Z,100510.59
2023-08-17T14:32:32.860Z,100519.50
2023-08-17T14:35:02.544Z,100515.13
2023-08-17T14:37:30.432Z,100519.50
2023-08-17T14:39:58.417Z,100512.25
2023-08-17T14:42:28.146Z,100514.22
2023-08-17T14:44:56.158Z,100524.59
2023-08-17T14:47:24.002Z,100534.47
2023-08-17T14:49:51.668Z,100531.16
2023-08-17T14:52:19.305Z,100531.75
2023-08-17T14:54:46.949Z,100529.03
2023-08-17T14:57:14.674Z,100529.84
2023-08-17T14:59:43.669Z,100531.16
2023-08-17T15:02:11.570Z,100515.44
2023-08-17T15:04:39.674Z,100512.38
2023-08-17T15:07:12.258Z,100503.94
2023-08-17T15:09:40.250Z,100502.19
2023-08-17T15:12:08.352Z,100499.97
2023-08-17T15:14:36.034Z,100500.72
2023-08-17T15:17:05.099Z,100497.28
2023-08-17T15:19:40.477Z,100493.47
2023-08-17T15:22:15.515Z,100496.44
2023-08-17T15:24:44.774Z,100489.69
2023-08-17T15:27:12.574Z,100501.69
2023-08-17T15:29:41.052Z,100497.41
2023-08-17T15:32:10.670Z,100487.94
2023-08-17T15:34:38.365Z,100483.31
2023-08-17T15:37:08.242Z,100480.94
2023-08-17T15:39:36.141Z,100476.31
2023-08-17T15:42:05.006Z,100476.31
2023-08-17T15:44:33.529Z,100475.16
2023-08-17T15:47:02.681Z,100481.19
2023-08-17T15:49:31.782Z,100480.59
2023-08-17T15:51:59.968Z,100473.28
2023-08-17T15:54:35.911Z,100477.34
2023-08-17T15:57:07.089Z,100473.22
2023-08-17T15:59:35.184Z,100476.16
2023-08-17T16:02:03.108Z,100464.47
2023-08-17T16:04:34.635Z,100474.28
2023-08-17T16:07:02.377Z,100483.25
2023-08-17T16:09:31.604Z,100487.03
2023-08-17T16:12:02.126Z,100479.97
2023-08-17T16:14:29.765Z,100483.75
2023-08-17T16:16:57.886Z,100488.09
2023-08-17T16:19:25.728Z,100482.09
2023-08-17T16:21:54.854Z,100473.44
2023-08-17T16:24:27.396Z,100473.69
2023-08-17T16:26:56.130Z,100478.56
2023-08-17T16:29:24.999Z,100482.69
2023-08-17T16:32:09.267Z,100483.75
2023-08-17T16:34:37.510Z,100483.44
2023-08-17T16:37:07.050Z,100485.88
2023-08-17T16:39:34.696Z,100485.88
2023-08-17T16:42:02.401Z,100492.97
2023-08-17T16:44:30.074Z,100497.56
2023-08-17T16:46:57.708Z,100508.44
2023-08-17T16:51:55.939Z,100510.59
2023-08-17T16:54:24.961Z,100513.31
2023-08-17T16:56:54.181Z,100521.78
2023-08-17T16:59:22.375Z,100523.13
2023-08-17T17:01:50.217Z,100524.50
2023-08-17T17:04:18.625Z,100525.56
2023-08-17T17:06:46.354Z,100524.50
2023-08-17T17:09:13.976Z,100519.66
2023-08-17T17:11:43.052Z,100524.00
2023-08-17T17:14:10.989Z,100528.88
2023-08-17T17:16:38.806Z,100518.00
2023-08-17T17:19:06.608Z,100517.41
2023-08-17T17:21:34.595Z,100519.59
2023-08-17T17:24:03.871Z,100520.66
2023-08-17T17:26:32.962Z,100514.41
2023-08-17T17:29:03.155Z,100516.88
2023-08-17T17:31:30.892Z,100519.59
2023-08-17T17:33:58.625Z,100515.78
2023-08-17T17:36:26.568Z,100513.06
2023-08-17T17:38:55.791Z,100516.88
2023-08-17T17:41:23.458Z,100504.09
2023-08-17T17:43:53.789Z,100507.63
2023-08-17T17:46:22.861Z,100502.69
2023-08-17T17:48:50.814Z,100511.91
2023-08-17T17:51:18.477Z,100509.44
2023-08-17T17:53:46.127Z,100505.31
2023-08-17T17:56:14.394Z,100502.59
2023-08-17T17:58:42.071Z,100506.41
2023-08-17T18:01:11.080Z,100501.47
2023-08-17T18:03:40.170Z,100503.59
2023-08-17T18:06:08.366Z,100501.38
2023-08-17T18:08:37.513Z,100503.53
2023-08-17T18:11:05.516Z,100499.19
2023-08-17T18:13:33.474Z,100504.03
2023-08-17T18:16:03.529Z,100499.06
2023-08-17T18:18:33.510Z,100502.84
2023-08-17T18:21:02.466Z,100505.84
2023-08-17T18:23:32.508Z,100512.59
2023-08-17T18:26:01.209Z,100507.63
2023-08-17T18:28:29.068Z,100504.34
2023-08-17T18:30:57.963Z,100519.00
2023-08-17T18:33:25.809Z,100513.00
2023-08-17T18:35:55.161Z,100515.13
2023-08-17T18:38:27.291Z,100517.25
2023-08-17T18:40:55.477Z,100522.13
2023-08-17T18:43:23.209Z,100525.28
2023-08-17T18:45:50.903Z,100526.38
2023-08-17T18:48:18.608Z,100530.63
2023-08-17T18:50:46.262Z,100536.06
2023-08-17T18:53:13.919Z,100530.88
2023-08-17T18:55:42.920Z,100533.25
2023-08-17T18:58:10.560Z,100535.38
2023-08-17T19:00:38.184Z,100532.09
2023-08-17T19:03:06.596Z,100545.09
2023-08-17T19:05:34.525Z,100546.63
2023-08-17T19:08:02.275Z,100548.22
2023-08-17T19:10:29.920Z,100548.69
2023-08-17T19:12:58.935Z,100550.81
2023-08-17T19:15:26.674Z,100550.50
2023-08-17T19:17:54.407Z,100552.16
2023-08-17T19:20:22.059Z,100556.66
2023-08-17T19:22:49.730Z,100567.25
2023-08-17T19:25:17.641Z,100569.38
2023-08-17T19:27:45.280Z,100568.72
2023-08-17T19:30:14.497Z,100578.63
2023-08-17T19:32:42.292Z,100573.34
2023-08-17T19:35:10.339Z,100570.78
2023-08-17T19:37:38.324Z,100579.63
2023-08-17T19:40:07.457Z,100583.69
2023-08-17T19:42:37.589Z,100577.06
2023-08-17T19:45:06.176Z,100575.66
2023-08-17T19:47:35.210Z,100578.03
2023-08-17T19:50:03.904Z,100573.31
2023-08-17T19:52:31.590Z,100573.59
2023-08-17T19:54:59.232Z,100575.72
2023-08-17T19:57:27.179Z,100579.47
2023-08-17T19:59:55.080Z,100581.81
2023-08-17T20:02:22.824Z,100583.13
2023-08-17T20:04:51.830Z,100586.06
2023-08-17T20:07:19.700Z,100590.06
2023-08-17T20:09:47.508Z,100582.41
2023-08-17T20:12:15.160Z,100591.38
2023-08-17T20:14:42.819Z,100589.72
2023-08-17T20:17:10.512Z,100580.19
2023-08-17T20:19:39.131Z,100578.53
2023-08-17T20:22:08.848Z,100574.41
2023-08-17T20:24:36.542Z,100576.53
2023-08-17T20:27:06.359Z,100577.84
2023-08-17T20:29:34.450Z,100580.78
2023-08-17T20:32:02.134Z,100578.31
2023-08-17T20:34:30.344Z,100579.38
2023-08-17T20:36:58.071Z,100576.06
2023-08-17T20:39:27.111Z,100576.34
2023-08-17T20:41:55.537Z,100569.72
2023-08-17T20:44:23.213Z,100576.44
2023-08-17T20:46:51.061Z,100570.44
2023-08-17T20:49:18.920Z,100569.84
2023-08-17T20:51:46.634Z,100575.50
2023-08-17T20:54:14.716Z,100583.28
2023-08-17T20:56:43.803Z,100581.53
2023-08-17T20:59:11.682Z,100588.00
2023-08-17T21:01:39.723Z,100585.06
2023-08-17T21:04:08.167Z,100582.56
2023-08-17T21:06:38.928Z,100586.34
2023-08-17T21:09:14.162Z,100587.41
2023-08-17T21:11:43.501Z,100590.13
2023-08-17T21:14:11.158Z,100578.09
2023-08-17T21:16:40.465Z,100577.28
2023-08-17T21:19:08.156Z,100574.81
2023-08-17T21:21:35.831Z,100574.44
2023-08-17T21:24:03.563Z,100564.91
2023-08-17T21:26:31.228Z,100566.56
2023-08-17T21:29:00.204Z,100565.38
2023-08-17T21:31:27.903Z,100557.47
2023-08-17T21:33:55.662Z,100553.91
2023-08-17T21:36:23.350Z,100552.25
2023-08-17T21:38:51.233Z,100553.34
2023-08-17T21:41:19.006Z,100552.16
2023-08-17T21:43:46.734Z,100548.25
2023-08-17T21:46:15.789Z,100548.75
2023-08-17T21:48:43.479Z,100543.56
2023-08-17T21:51:11.190Z,100542.50
2023-08-17T21:53:38.835Z,100543.56
2023-08-17T21:56:06.466Z,100546.47
2023-08-17T21:58:34.088Z,100548.13
2023-08-17T22:01:02.767Z,100539.41
2023-08-17T22:03:32.084Z,100536.47
2023-08-17T22:06:03.758Z,100532.34
2023-08-17T22:08:31.497Z,100537.75
2023-08-17T22:10:59.221Z,100533.44
2023-08-17T22:13:26.957Z,100529.91
2023-08-17T22:15:54.649Z,100529.91
2023-08-17T22:18:22.396Z,100527.41
2023-08-17T22:20:51.472Z,100522.69
2023-08-17T22:23:19.165Z,100532.13
2023-08-17T22:25:46.828Z,100521.75
2023-08-17T22:28:14.511Z,100528.44
2023-08-17T22:30:42.187Z,100531.38
2023-08-17T22:33:09.843Z,100533.03
2023-08-17T22:35:37.488Z,100527.03
2023-08-17T22:38:06.632Z,100531.38
2023-08-17T22:40:34.304Z,100525.97
2023-08-17T22:43:01.954Z,100528.94
2023-08-17T22:45:29.611Z,100532.22
2023-08-17T22:47:57.414Z,100531.03
2023-08-17T22:50:25.096Z,100523.72
2023-08-17T22:52:54.897Z,100517.47
2023-08-17T22:55:24.166Z,100533.28
2023-08-17T22:57:51.858Z,100517.03
2023-08-17T23:00:20.451Z,100525.75
2023-08-17T23:02:48.323Z,100529.25
2023-08-17T23:05:16.594Z,100536.56
2023-08-17T23:07:44.316Z,100530.34
2023-08-17T23:10:12.751Z,100533.28
2023-08-17T23:12:41.843Z,100534.94
2023-08-17T23:15:10.013Z,100538.69
2023-08-17T23:17:37.656Z,100540.78
2023-08-17T23:20:06.273Z,100537.47
2023-08-17T23:22:33.960Z,100532.28
2023-08-17T23:25:01.641Z,100534.19
2023-08-17T23:27:29.486Z,100537.72
2023-08-17T23:29:58.753Z,100537.47
2023-08-17T23:32:28.789Z,100554.22
2023-08-17T23:34:56.748Z,100547.59
2023-08-17T23:37:24.606Z,100545.94
2023-08-17T23:39:52.440Z,100540.75
2023-08-17T23:42:20.248Z,100538.06
2023-08-17T23:44:48.010Z,100524.50
2023-08-17T23:47:17.021Z,100524.50
2023-08-17T23:49:45.549Z,100519.94
2023-08-17T23:52:13.459Z,100524.50
2023-08-17T23:54:41.149Z,100520.97
2023-08-17T23:57:08.834Z,100514.75
2023-08-17T23:59:36.494Z,100509.59
